createdAt,value
2022-11-29T00:01:01.069Z,17.67
2022-11-29T00:03:28.143Z,19.10
2022-11-29T00:05:55.571Z,22.38
2022-11-29T00:08:23.463Z,19.13
2022-11-29T00:10:50.317Z,24.23
2022-11-29T00:13:17.498Z,27.33
2022-11-29T00:15:43.930Z,21.67
2022-11-29T00:18:10.331Z,20.80
2022-11-29T00:20:39.157Z,22.17
2022-11-29T00:23:05.955Z,18.23
2022-11-29T00:25:34.721Z,16.60
2022-11-29T00:28:05.802Z,19.98
2022-11-29T00:30:32.311Z,20.70
2022-11-29T00:32:58.788Z,22.77
2022-11-29T00:35:25.225Z,18.65
2022-11-29T00:37:51.616Z,12.20
2022-11-29T00:40:18.258Z,19.75
2022-11-29T00:42:44.729Z,16.60
2022-11-29T00:45:12.033Z,23.17
2022-11-29T00:47:38.480Z,18.58
2022-11-29T00:50:06.610Z,18.30
2022-11-29T00:52:35.452Z,20.77
2022-11-29T00:55:04.422Z,20.65
2022-11-29T00:57:30.864Z,23.58
2022-11-29T00:59:57.227Z,20.02
2022-11-29T01:02:24.089Z,19.35
2022-11-29T01:04:53.056Z,21.45
2022-11-29T01:07:22.020Z,22.20
2022-11-29T01:09:48.434Z,20.13
2022-11-29T01:12:17.712Z,20.40
2022-11-29T01:14:44.463Z,16.02
2022-11-29T01:17:11.145Z,25.30
2022-11-29T01:19:38.857Z,16.02
2022-11-29T01:22:05.229Z,12.80
2022-11-29T01:24:31.705Z,18.40
2022-11-29T01:26:58.167Z,16.95
2022-11-29T01:29:24.647Z,19.55
2022-11-29T01:31:53.454Z,16.55
2022-11-29T01:34:22.521Z,18.80
2022-11-29T01:36:48.933Z,23.58
2022-11-29T01:39:15.412Z,19.50
2022-11-29T01:41:44.202Z,20.70
2022-11-29T01:44:30.953Z,16.73
2022-11-29T01:46:58.259Z,22.35
2022-11-29T01:49:31.697Z,23.35
2022-11-29T01:52:02.542Z,20.80
2022-11-29T01:54:30.630Z,16.73
2022-11-29T01:57:01.126Z,24.35
2022-11-29T01:59:30.017Z,13.00
2022-11-29T02:02:04.688Z,17.63
2022-11-29T02:04:35.739Z,21.30
2022-11-29T02:07:02.486Z,20.23
2022-11-29T02:09:29.016Z,20.92
2022-11-29T02:12:07.212Z,19.25
2022-11-29T02:14:56.599Z,13.65
2022-11-29T02:17:33.963Z,21.88
2022-11-29T02:20:06.011Z,15.27
2022-11-29T02:22:47.642Z,22.52
2022-11-29T02:25:20.331Z,18.50
2022-11-29T02:28:15.535Z,12.05
2022-11-29T02:31:12.178Z,10.55
2022-11-29T02:33:44.872Z,18.92
2022-11-29T02:36:35.747Z,15.77
2022-11-29T02:39:28.761Z,19.38
2022-11-29T02:42:54.068Z,26.50
2022-11-29T02:46:10.717Z,20.25
2022-11-29T02:48:57.978Z,23.92
2022-11-29T02:51:58.028Z,18.85
2022-11-29T02:54:43.599Z,21.20
2022-11-29T02:57:37.271Z,26.73
2022-11-29T03:00:06.837Z,18.60
2022-11-29T03:02:47.142Z,26.25
2022-11-29T03:05:52.100Z,10.57
2022-11-29T03:08:31.873Z,19.85
2022-11-29T03:11:07.118Z,25.65
2022-11-29T03:13:52.481Z,22.05
2022-11-29T03:16:47.568Z,19.73
2022-11-29T03:19:41.894Z,29.42
2022-11-29T03:22:18.509Z,16.85
2022-11-29T03:25:07.048Z,24.00
2022-11-29T03:27:52.606Z,24.63
2022-11-29T03:30:19.900Z,22.23
2022-11-29T03:33:16.960Z,23.45
2022-11-29T03:36:00.988Z,19.20
2022-11-29T03:38:38.557Z,14.20
2022-11-29T03:41:23.800Z,12.85
2022-11-29T03:44:07.046Z,9.35
2022-11-29T03:46:37.996Z,10.57
2022-11-29T03:49:18.608Z,10.35
2022-11-29T03:52:01.077Z,10.95
2022-11-29T03:54:35.136Z,13.50
2022-11-29T03:57:01.732Z,16.38
2022-11-29T03:59:51.911Z,19.35
2022-11-29T04:02:37.190Z,20.13
2022-11-29T04:05:06.562Z,21.13
2022-11-29T04:08:00.986Z,19.33
2022-11-29T04:10:49.077Z,18.42
2022-11-29T04:13:22.473Z,25.00
2022-11-29T04:15:55.250Z,21.35
2022-11-29T04:18:46.612Z,23.98
2022-11-29T04:21:31.438Z,22.10
2022-11-29T04:24:22.744Z,22.13
2022-11-29T04:26:51.510Z,19.15
2022-11-29T04:29:39.972Z,15.27
2022-11-29T04:32:39.612Z,25.52
2022-11-29T04:35:15.451Z,22.10
2022-11-29T04:38:15.820Z,33.40
2022-11-29T04:41:07.776Z,17.73
2022-11-29T04:43:49.407Z,19.27
2022-11-29T04:46:43.134Z,12.73
2022-11-29T04:49:37.370Z,17.08
2022-11-29T04:52:27.006Z,21.63
2022-11-29T04:55:24.964Z,55.47
2022-11-29T04:58:00.099Z,27.00
2022-11-29T05:00:28.899Z,34.05
2022-11-29T05:03:04.723Z,40.88
2022-11-29T05:05:43.175Z,34.63
2022-11-29T05:08:40.520Z,35.78
2022-11-29T05:11:26.861Z,34.92
2022-11-29T05:14:26.232Z,21.90
2022-11-29T05:17:27.022Z,22.60
2022-11-29T05:20:08.518Z,22.17
2022-11-29T05:22:53.841Z,29.02
2022-11-29T05:25:44.598Z,30.73
2022-11-29T05:28:37.936Z,39.58
2022-11-29T05:31:39.665Z,30.20
2022-11-29T05:34:46.623Z,20.40
2022-11-29T05:37:45.613Z,32.30
2022-11-29T05:40:33.518Z,31.75
2022-11-29T05:43:14.888Z,26.20
2022-11-29T05:45:57.664Z,47.22
2022-11-29T05:48:46.369Z,28.70
2022-11-29T05:51:22.847Z,40.22
2022-11-29T05:54:07.719Z,39.92
2022-11-29T05:56:46.941Z,36.97
2022-11-29T05:59:20.428Z,49.88
2022-11-29T06:01:56.233Z,51.10
2022-11-29T06:04:55.273Z,40.85
2022-11-29T06:07:37.379Z,44.58
2022-11-29T06:10:11.019Z,29.90
2022-11-29T06:12:42.584Z,26.48
2022-11-29T06:15:24.224Z,41.90
2022-11-29T06:18:23.578Z,36.00
2022-11-29T06:21:01.858Z,32.78
2022-11-29T06:23:37.306Z,51.95
2022-11-29T06:26:42.130Z,56.40
2022-11-29T06:29:29.529Z,40.85
2022-11-29T06:32:20.301Z,34.13
2022-11-29T06:35:13.100Z,41.80
2022-11-29T06:40:15.887Z,39.30
2022-11-29T06:42:42.816Z,27.63
2022-11-29T06:45:14.176Z,56.63
2022-11-29T06:47:50.439Z,39.97
2022-11-29T06:50:38.245Z,50.55
2022-11-29T06:53:13.964Z,57.08
2022-11-29T06:56:18.091Z,37.70
2022-11-29T06:59:10.670Z,29.80
2022-11-29T07:01:47.939Z,46.90
2022-11-29T07:04:35.339Z,45.22
2022-11-29T07:07:02.030Z,37.72
2022-11-29T07:09:34.118Z,51.92
2022-11-29T07:12:03.345Z,35.78
2022-11-29T07:14:29.990Z,29.65
2022-11-29T07:17:15.148Z,36.78
2022-11-29T07:20:16.033Z,41.25
2022-11-29T07:22:54.685Z,42.38
2022-11-29T07:25:21.175Z,31.77
2022-11-29T07:28:02.718Z,29.42
2022-11-29T07:30:37.156Z,38.88
2022-11-29T07:33:21.818Z,28.48
2022-11-29T07:36:22.320Z,36.83
2022-11-29T07:38:57.218Z,33.47
2022-11-29T07:41:26.560Z,39.90
2022-11-29T07:44:06.606Z,27.77
2022-11-29T07:46:33.139Z,45.13
2022-11-29T07:48:59.593Z,42.17
2022-11-29T07:51:26.057Z,32.28
2022-11-29T07:53:52.468Z,41.03
2022-11-29T07:56:18.893Z,40.60
2022-11-29T07:58:45.368Z,46.85
2022-11-29T08:01:12.019Z,43.03
2022-11-29T08:03:38.372Z,45.95
2022-11-29T08:06:07.297Z,38.75
2022-11-29T08:08:40.695Z,36.97
2022-11-29T08:11:15.321Z,40.78
2022-11-29T08:13:41.839Z,39.07
2022-11-29T08:16:11.829Z,31.42
2022-11-29T08:18:38.227Z,36.17
2022-11-29T08:21:10.198Z,35.40
2022-11-29T08:23:39.090Z,31.17
2022-11-29T08:26:05.964Z,37.50
2022-11-29T08:28:32.338Z,35.25
2022-11-29T08:31:11.654Z,35.75
2022-11-29T08:33:41.461Z,40.58
2022-11-29T08:36:10.670Z,40.38
2022-11-29T08:38:37.330Z,42.60
2022-11-29T08:41:06.034Z,36.47
2022-11-29T08:43:32.683Z,37.08
2022-11-29T08:45:59.234Z,29.70
2022-11-29T08:48:26.182Z,34.78
2022-11-29T08:50:54.712Z,31.40
2022-11-29T08:53:42.245Z,31.13
2022-11-29T08:59:07.265Z,27.50
2022-11-29T09:01:33.753Z,35.67
2022-11-29T09:04:00.208Z,28.40
2022-11-29T09:06:28.669Z,27.20
2022-11-29T09:08:56.404Z,29.40
2022-11-29T09:11:24.483Z,27.38
2022-11-29T09:13:53.711Z,26.50
2022-11-29T09:16:23.688Z,25.63
2022-11-29T09:18:51.891Z,21.73
2022-11-29T09:21:19.583Z,21.40
2022-11-29T09:23:46.057Z,23.38
2022-11-29T09:26:17.825Z,29.67
2022-11-29T09:28:44.405Z,31.05
2022-11-29T09:31:20.124Z,35.97
2022-11-29T09:33:47.717Z,32.30
2022-11-29T09:36:14.912Z,33.42
2022-11-29T09:38:41.696Z,34.97
2022-11-29T09:41:47.075Z,44.33
2022-11-29T09:44:52.450Z,47.50
2022-11-29T09:47:27.851Z,46.38
2022-11-29T09:49:58.720Z,50.45
2022-11-29T09:52:49.696Z,49.30
2022-11-29T09:55:34.618Z,50.97
2022-11-29T09:58:03.825Z,49.15
2022-11-29T10:00:38.110Z,43.92
2022-11-29T10:03:16.608Z,48.13
2022-11-29T10:05:46.956Z,39.22
2022-11-29T10:08:44.259Z,43.08
2022-11-29T10:11:28.231Z,43.55
2022-11-29T10:14:16.690Z,37.20
2022-11-29T10:17:00.027Z,35.10
2022-11-29T10:19:41.088Z,33.25
2022-11-29T10:22:30.610Z,33.15
2022-11-29T10:25:00.894Z,42.15
2022-11-29T10:27:29.544Z,43.80
2022-11-29T10:29:59.181Z,32.80
2022-11-29T10:32:26.273Z,32.55
2022-11-29T10:34:57.513Z,36.40
2022-11-29T10:37:24.592Z,33.60
2022-11-29T10:39:58.557Z,28.38
2022-11-29T10:42:46.462Z,42.08
2022-11-29T10:45:30.655Z,41.00
2022-11-29T10:48:21.194Z,46.67
2022-11-29T10:50:50.493Z,38.55
2022-11-29T10:53:25.893Z,43.88
2022-11-29T10:56:07.422Z,44.20
2022-11-29T10:58:34.204Z,37.83
2022-11-29T11:01:06.835Z,29.77
2022-11-29T11:03:36.434Z,36.60
2022-11-29T11:06:09.573Z,27.98
2022-11-29T11:08:37.466Z,29.23
2022-11-29T11:11:06.105Z,26.58
2022-11-29T11:13:33.984Z,34.90
2022-11-29T11:16:10.705Z,28.75
2022-11-29T11:18:37.905Z,32.85
2022-11-29T11:21:09.130Z,36.03
2022-11-29T11:23:42.981Z,30.20
2022-11-29T11:26:12.785Z,27.83
2022-11-29T11:28:53.718Z,26.35
2022-11-29T11:31:34.197Z,32.72
2022-11-29T11:34:19.374Z,27.20
2022-11-29T11:36:45.833Z,34.97
2022-11-29T11:39:19.049Z,32.90
2022-11-29T11:42:05.395Z,24.00
2022-11-29T11:44:48.464Z,31.35
2022-11-29T11:47:28.810Z,28.70
2022-11-29T11:50:04.352Z,29.27
2022-11-29T11:52:39.765Z,22.92
2022-11-29T11:55:36.885Z,23.67
2022-11-29T11:58:31.275Z,31.77
2022-11-29T12:01:20.765Z,29.60
2022-11-29T12:04:22.945Z,28.23
2022-11-29T12:06:56.120Z,28.35
2022-11-29T12:09:36.472Z,25.65
2022-11-29T12:12:25.945Z,37.03
2022-11-29T12:15:18.547Z,31.33
2022-11-29T12:17:57.601Z,34.10
2022-11-29T12:20:45.386Z,25.88
2022-11-29T12:23:11.781Z,38.88
2022-11-29T12:25:58.110Z,29.40
2022-11-29T12:28:33.565Z,30.13
2022-11-29T12:31:02.859Z,23.23
2022-11-29T12:33:43.089Z,30.30
2022-11-29T12:36:22.754Z,32.30
2022-11-29T12:39:04.688Z,30.20
2022-11-29T12:41:54.281Z,36.92
2022-11-29T12:44:20.842Z,31.60
2022-11-29T12:47:34.509Z,35.15
2022-11-29T12:50:24.318Z,31.92
2022-11-29T12:53:03.011Z,29.35
2022-11-29T12:55:54.763Z,28.88
2022-11-29T12:58:45.760Z,27.27
2022-11-29T13:01:23.240Z,26.10
2022-11-29T13:03:58.463Z,28.55
2022-11-29T13:07:03.552Z,34.00
2022-11-29T13:09:53.528Z,35.95
2022-11-29T13:12:39.572Z,30.05
2022-11-29T13:15:17.959Z,33.28
2022-11-29T13:17:56.506Z,26.23
2022-11-29T13:20:35.035Z,35.83
2022-11-29T13:23:07.403Z,29.15
2022-11-29T13:28:17.985Z,39.33
2022-11-29T13:30:45.095Z,30.17
2022-11-29T13:33:24.897Z,28.05
2022-11-29T13:36:06.743Z,36.25
2022-11-29T13:38:40.264Z,33.05
2022-11-29T13:41:32.851Z,34.72
2022-11-29T13:44:15.805Z,39.40
2022-11-29T13:47:03.417Z,50.45
2022-11-29T13:49:51.717Z,64.50
2022-11-29T13:52:39.612Z,56.30
2022-11-29T13:55:11.877Z,39.83
2022-11-29T14:00:44.414Z,46.70
2022-11-29T14:03:32.786Z,48.22
2022-11-29T14:06:01.964Z,46.10
2022-11-29T14:08:47.667Z,50.88
2022-11-29T14:11:17.506Z,60.92
2022-11-29T14:14:08.743Z,56.88
2022-11-29T14:16:46.512Z,63.92
2022-11-29T14:19:23.071Z,46.72
2022-11-29T14:21:58.644Z,64.40
2022-11-29T14:24:35.255Z,54.92
2022-11-29T14:27:07.919Z,44.42
2022-11-29T14:29:55.440Z,63.15
2022-11-29T14:32:46.003Z,53.72
2022-11-29T14:35:13.019Z,68.13
2022-11-29T14:38:20.467Z,58.90
2022-11-29T14:41:25.440Z,63.92
2022-11-29T14:44:05.324Z,56.03
2022-11-29T14:46:32.990Z,60.25
2022-11-29T14:49:03.131Z,54.63
2022-11-29T14:51:32.624Z,56.65
2022-11-29T14:54:14.772Z,67.40
2022-11-29T14:56:43.472Z,52.45
2022-11-29T14:59:47.802Z,54.75
2022-11-29T15:02:16.684Z,53.08
2022-11-29T15:04:44.169Z,57.15
2022-11-29T15:07:18.683Z,54.58
2022-11-29T15:09:50.316Z,52.28
2022-11-29T15:12:26.898Z,74.53
2022-11-29T15:15:03.302Z,56.53
2022-11-29T15:17:49.887Z,56.45
2022-11-29T15:20:37.568Z,49.15
2022-11-29T15:23:09.687Z,57.55
2022-11-29T15:25:38.502Z,69.93
2022-11-29T15:28:06.053Z,51.03
2022-11-29T15:30:39.774Z,54.78
2022-11-29T15:33:15.551Z,58.88
2022-11-29T15:35:51.286Z,63.15
2022-11-29T15:38:21.780Z,74.57
2022-11-29T15:40:53.964Z,94.38
2022-11-29T15:43:25.623Z,79.10
2022-11-29T15:45:59.785Z,60.03
2022-11-29T15:48:31.051Z,68.40
2022-11-29T15:51:00.588Z,78.07
2022-11-29T15:53:44.827Z,56.60
2022-11-29T15:56:17.861Z,95.47
2022-11-29T15:58:45.799Z,97.18
2022-11-29T16:01:19.549Z,89.03
2022-11-29T16:03:47.578Z,66.70
2022-11-29T16:06:23.890Z,56.20
2022-11-29T16:08:51.981Z,58.35
2022-11-29T16:11:22.765Z,45.58
2022-11-29T16:14:15.050Z,54.10
2022-11-29T16:16:46.368Z,63.15
2022-11-29T16:19:28.356Z,67.93
2022-11-29T16:22:02.912Z,52.47
2022-11-29T16:24:31.940Z,52.63
2022-11-29T16:27:00.727Z,42.47
2022-11-29T16:29:30.601Z,40.38
2022-11-29T16:31:57.749Z,50.35
2022-11-29T16:34:28.022Z,60.15
2022-11-29T16:37:14.534Z,70.10
2022-11-29T16:39:45.714Z,54.83
2022-11-29T16:42:24.972Z,61.08
2022-11-29T16:45:02.206Z,75.00
2022-11-29T16:47:30.648Z,46.47
2022-11-29T16:50:22.481Z,66.93
2022-11-29T16:52:54.833Z,46.93
2022-11-29T16:55:27.573Z,57.22
2022-11-29T16:57:54.084Z,50.90
2022-11-29T17:00:31.687Z,50.28
2022-11-29T17:02:59.115Z,48.20
2022-11-29T17:05:27.828Z,54.33
2022-11-29T17:07:54.655Z,46.10
2022-11-29T17:10:25.462Z,43.08
2022-11-29T17:12:52.053Z,41.97
2022-11-29T17:15:18.504Z,45.60
2022-11-29T17:17:45.100Z,35.38
2022-11-29T17:20:15.408Z,43.25
2022-11-29T17:22:41.777Z,44.45
2022-11-29T17:25:12.020Z,35.97
2022-11-29T17:27:38.384Z,30.30
2022-11-29T17:30:07.075Z,48.28
2022-11-29T17:32:35.644Z,34.42
2022-11-29T17:35:02.010Z,57.85
2022-11-29T17:37:30.145Z,52.90
2022-11-29T17:39:59.130Z,60.95
2022-11-29T17:42:30.341Z,51.55
2022-11-29T17:44:56.718Z,58.85
2022-11-29T17:47:23.132Z,51.25
2022-11-29T17:49:52.055Z,47.30
2022-11-29T17:52:18.428Z,46.42
2022-11-29T17:54:45.004Z,47.05
2022-11-29T17:57:11.445Z,56.78
2022-11-29T17:59:40.427Z,43.60
2022-11-29T18:02:07.053Z,53.03
2022-11-29T18:04:33.504Z,54.38
2022-11-29T18:07:01.426Z,40.33
2022-11-29T18:09:32.483Z,53.85
2022-11-29T18:11:58.866Z,46.38
2022-11-29T18:14:28.155Z,52.35
2022-11-29T18:16:56.991Z,38.20
2022-11-29T18:19:25.790Z,50.65
2022-11-29T18:21:54.595Z,38.78
2022-11-29T18:24:21.141Z,47.17
2022-11-29T18:26:49.800Z,55.75
2022-11-29T18:29:16.869Z,50.85
2022-11-29T18:31:45.251Z,51.25
2022-11-29T18:34:13.706Z,40.05
2022-11-29T18:36:46.251Z,63.90
2022-11-29T18:39:15.401Z,52.65
2022-11-29T18:41:44.865Z,47.75
2022-11-29T18:44:13.753Z,48.75
2022-11-29T18:46:42.997Z,43.45
2022-11-29T18:49:12.012Z,41.65
2022-11-29T18:51:39.658Z,37.60
2022-11-29T18:54:06.521Z,46.78
2022-11-29T18:56:34.604Z,50.08
2022-11-29T18:59:06.579Z,57.33
2022-11-29T19:01:35.295Z,46.50
2022-11-29T19:04:02.175Z,67.65
2022-11-29T19:06:39.871Z,41.85
2022-11-29T19:09:13.333Z,56.00
2022-11-29T19:11:42.305Z,49.85
2022-11-29T19:14:13.960Z,43.35
2022-11-29T19:16:43.223Z,49.42
2022-11-29T19:19:09.934Z,48.70
2022-11-29T19:21:36.692Z,42.90
2022-11-29T19:24:05.603Z,63.30
2022-11-29T19:26:33.558Z,49.20
2022-11-29T19:29:01.404Z,54.63
2022-11-29T19:31:28.850Z,49.47
2022-11-29T19:33:56.428Z,42.60
2022-11-29T19:36:25.715Z,52.97
2022-11-29T19:38:54.068Z,53.20
2022-11-29T19:41:23.540Z,39.65
2022-11-29T19:43:50.113Z,42.30
2022-11-29T19:46:22.692Z,47.15
2022-11-29T19:48:49.409Z,50.25
2022-11-29T19:51:18.606Z,42.65
2022-11-29T19:53:46.512Z,39.58
2022-11-29T19:56:16.661Z,33.63
2022-11-29T19:58:43.993Z,36.00
2022-11-29T20:01:14.967Z,36.22
2022-11-29T20:03:45.190Z,26.88
2022-11-29T20:06:13.584Z,31.58
2022-11-29T20:08:40.489Z,33.88
2022-11-29T20:11:09.756Z,34.67
2022-11-29T20:13:37.754Z,22.80
2022-11-29T20:16:05.866Z,25.05
2022-11-29T20:18:33.604Z,20.73
2022-11-29T20:21:11.850Z,33.15
2022-11-29T20:23:39.356Z,49.13
2022-11-29T20:26:08.043Z,56.70
2022-11-29T20:28:38.233Z,53.20
2022-11-29T20:31:12.819Z,34.55
2022-11-29T20:33:41.381Z,31.30
2022-11-29T20:36:31.995Z,53.70
2022-11-29T20:39:07.386Z,34.95
2022-11-29T20:41:43.133Z,42.88
2022-11-29T20:44:19.637Z,34.67
2022-11-29T20:46:48.741Z,43.05
2022-11-29T20:49:17.242Z,41.03
2022-11-29T20:51:54.585Z,44.97
2022-11-29T20:54:23.726Z,42.40
2022-11-29T20:56:50.211Z,35.75
2022-11-29T20:59:17.917Z,27.23
2022-11-29T21:01:46.482Z,32.90
2022-11-29T21:04:18.880Z,36.35
2022-11-29T21:06:48.435Z,41.47
2022-11-29T21:09:14.820Z,32.30
2022-11-29T21:11:43.849Z,25.95
2022-11-29T21:14:10.624Z,32.88
2022-11-29T21:16:37.185Z,20.75
2022-11-29T21:19:03.997Z,23.80
2022-11-29T21:21:42.005Z,25.95
2022-11-29T21:24:26.306Z,40.53
2022-11-29T21:26:53.066Z,39.15
2022-11-29T21:29:21.730Z,35.13
2022-11-29T21:31:52.235Z,23.85
2022-11-29T21:34:21.473Z,37.50
2022-11-29T21:36:56.841Z,35.47
2022-11-29T21:39:33.799Z,31.08
2022-11-29T21:42:00.426Z,39.17
2022-11-29T21:44:26.794Z,35.05
2022-11-29T21:46:54.193Z,32.00
2022-11-29T21:49:20.608Z,29.90
2022-11-29T21:51:47.025Z,30.42
2022-11-29T21:54:13.509Z,24.10
2022-11-29T21:56:39.987Z,29.10
2022-11-29T21:59:06.344Z,17.00
2022-11-29T22:01:35.341Z,34.53
2022-11-29T22:04:01.911Z,38.30
2022-11-29T22:06:29.434Z,31.50
2022-11-29T22:09:00.223Z,49.08
2022-11-29T22:11:34.072Z,30.38
2022-11-29T22:14:15.555Z,36.90
2022-11-29T22:16:46.125Z,41.92
2022-11-29T22:19:16.554Z,39.47
2022-11-29T22:21:45.134Z,40.85
2022-11-29T22:24:13.924Z,50.58
2022-11-29T22:26:41.698Z,57.90
2022-11-29T22:29:08.159Z,55.28
2022-11-29T22:31:36.015Z,55.60
2022-11-29T22:34:02.932Z,56.90
2022-11-29T22:36:31.743Z,57.53
2022-11-29T22:38:58.543Z,47.25
2022-11-29T22:41:25.750Z,45.58
2022-11-29T22:43:52.432Z,43.88
2022-11-29T22:46:26.288Z,56.45
2022-11-29T22:48:55.473Z,43.85
2022-11-29T22:51:23.187Z,45.30
2022-11-29T22:54:03.557Z,38.05
2022-11-29T22:56:32.610Z,53.47
2022-11-29T22:58:59.225Z,54.00
2022-11-29T23:01:30.047Z,55.55
2022-11-29T23:03:58.493Z,45.10
2022-11-29T23:06:30.213Z,48.03
2022-11-29T23:09:03.907Z,53.83
2022-11-29T23:11:30.947Z,56.92
2022-11-29T23:13:57.672Z,49.13
2022-11-29T23:16:26.996Z,59.95
2022-11-29T23:18:55.171Z,50.95
2022-11-29T23:21:31.870Z,44.85
2022-11-29T23:24:01.529Z,52.33
2022-11-29T23:26:33.948Z,42.67
2022-11-29T23:31:31.629Z,39.65
2022-11-29T23:33:58.321Z,46.17
2022-11-29T23:36:27.010Z,55.83
2022-11-29T23:38:53.380Z,54.80
2022-11-29T23:41:19.855Z,53.25
2022-11-29T23:43:46.267Z,50.25
2022-11-29T23:46:15.617Z,46.78
2022-11-29T23:48:42.661Z,52.22
2022-11-29T23:51:09.360Z,43.60
2022-11-29T23:53:36.420Z,58.50
2022-11-29T23:56:08.134Z,61.35
2022-11-29T23:58:37.943Z,54.30
